Time;durP1;ratioP1;P1;durP2;ratioP2;P2;SDS_P1;SDS_P2;PMS_P1;PMS_P2;Temp;Humidity;BMP_temperature;BMP_pressure;BME280_temperature;BME280_humidity;BME280_pressure;Samples;Min_cycle;Max_cycle;Signal;HPM_P1;HPM_P2
2022/01/31 00:01:43;;;;;;;18.52;7.55;;;;;;;2.18;70.91;99403.75;2622688;54;20046;-71
2022/01/31 00:04:16;;;;;;;14.93;7.43;;;;;;;2.17;70.97;99390.84;2623123;54;20034;-69
2022/01/31 00:06:48;;;;;;;16.05;7.78;;;;;;;2.19;71.01;99376.69;2623973;54;20592;-69
2022/01/31 00:09:20;;;;;;;16.15;7.50;;;;;;;2.26;71.39;99384.03;2624347;54;20026;-69
2022/01/31 00:11:57;;;;;;;16.98;8.02;;;;;;;2.24;71.29;99389.34;2624363;54;20034;-71
2022/01/31 00:14:35;;;;;;;21.30;8.68;;;;;;;2.22;70.70;99371.22;2624027;54;20030;-69
2022/01/31 00:17:06;;;;;;;15.05;7.53;;;;;;;2.21;71.14;99340.88;2623828;54;20031;-69
2022/01/31 00:19:39;;;;;;;20.40;8.07;;;;;;;2.28;71.06;99332.53;2624106;54;20038;-70
2022/01/31 00:22:10;;;;;;;17.42;8.23;;;;;;;2.30;71.26;99331.47;2623076;54;20594;-70
2022/01/31 00:24:40;;;;;;;21.17;8.35;;;;;;;2.30;71.34;99341.09;2623648;54;20032;-69
2022/01/31 00:27:11;;;;;;;17.13;7.93;;;;;;;2.31;71.25;99345.34;2623423;54;20038;-69
2022/01/31 00:29:40;;;;;;;18.15;7.43;;;;;;;2.25;71.09;99325.00;2622363;47;20641;-69
2022/01/31 00:32:10;;;;;;;17.75;7.88;;;;;;;2.22;71.00;99313.03;2622855;39;20525;-71
2022/01/31 00:34:43;;;;;;;19.30;8.18;;;;;;;2.12;71.23;99293.84;2623217;54;20067;-71
2022/01/31 00:37:12;;;;;;;18.45;7.93;;;;;;;2.21;71.27;99282.69;2622992;54;20585;-70
2022/01/31 00:39:42;;;;;;;20.13;7.68;;;;;;;2.29;71.48;99262.00;2622146;47;20022;-69
2022/01/31 00:42:11;;;;;;;21.02;7.28;;;;;;;2.39;71.03;99241.16;2621817;54;20550;-70
2022/01/31 00:44:48;;;;;;;14.52;7.72;;;;;;;2.43;70.82;99243.38;2622465;54;20553;-69
2022/01/31 00:47:24;;;;;;;16.20;7.50;;;;;;;2.41;70.98;99229.66;2622431;46;20034;-70
2022/01/31 00:50:07;;;;;;;11.65;7.25;;;;;;;2.39;70.80;99228.94;2622621;54;20026;-69
2022/01/31 00:52:38;;;;;;;14.55;6.97;;;;;;;2.44;71.21;99205.88;2622519;54;20041;-70
2022/01/31 00:55:10;;;;;;;16.92;6.72;;;;;;;2.48;70.77;99190.78;2622300;54;20034;-68
2022/01/31 00:57:40;;;;;;;14.13;6.15;;;;;;;2.54;70.67;99172.00;2622451;54;20031;-68
2022/01/31 01:00:12;;;;;;;15.85;6.68;;;;;;;2.56;71.22;99167.47;2622005;54;20048;-69
2022/01/31 01:02:42;;;;;;;13.95;5.50;;;;;;;2.59;70.93;99145.50;2621965;47;20079;-69
2022/01/31 01:05:16;;;;;;;16.60;5.63;;;;;;;2.67;71.13;99120.38;2622496;54;20027;-69
2022/01/31 01:07:46;;;;;;;14.00;5.23;;;;;;;2.72;70.76;99119.97;2622653;54;20036;-69
2022/01/31 01:10:17;;;;;;;18.15;5.20;;;;;;;2.77;70.54;99112.56;2623023;47;20034;-68
2022/01/31 01:12:47;;;;;;;17.08;5.53;;;;;;;2.84;70.20;99110.25;2622648;54;20031;-69
2022/01/31 01:15:17;;;;;;;17.17;5.60;;;;;;;2.86;70.39;99098.72;2622440;47;20615;-69
2022/01/31 01:17:47;;;;;;;17.90;5.20;;;;;;;2.89;69.95;99076.72;2622714;54;20053;-69
2022/01/31 01:20:20;;;;;;;15.75;5.15;;;;;;;2.92;69.94;99061.59;2622389;54;20046;-69
2022/01/31 01:22:50;;;;;;;18.70;5.40;;;;;;;2.93;69.91;99065.84;2622689;54;20038;-69
2022/01/31 01:25:19;;;;;;;16.25;4.70;;;;;;;2.95;69.93;99068.34;2623093;54;20038;-69
2022/01/31 01:27:52;;;;;;;15.63;4.78;;;;;;;2.97;69.84;99066.41;2623338;54;20027;-69
2022/01/31 01:30:23;;;;;;;10.32;4.55;;;;;;;2.95;70.05;99053.50;2623229;46;20023;-69
2022/01/31 01:33:05;;;;;;;10.48;4.07;;;;;;;2.96;69.77;99047.31;2623415;54;20034;-69
2022/01/31 01:35:38;;;;;;;14.82;5.45;;;;;;;2.98;69.51;99037.56;2622161;54;20045;-69
2022/01/31 01:38:10;;;;;;;19.98;6.03;;;;;;;3.00;69.94;99023.53;2622406;51;20037;-69
2022/01/31 01:40:42;;;;;;;10.73;4.10;;;;;;;3.00;69.77;99015.69;2622879;54;20026;-69
2022/01/31 01:43:16;;;;;;;15.10;4.82;;;;;;;2.98;69.56;99014.06;2622411;54;20046;-69
2022/01/31 01:45:46;;;;;;;15.57;4.80;;;;;;;2.97;69.82;98988.88;2622384;39;20185;-69
2022/01/31 01:48:20;;;;;;;19.35;5.20;;;;;;;2.99;69.72;98978.31;2622419;54;20030;-68
2022/01/31 01:50:54;;;;;;;17.13;4.78;;;;;;;3.04;69.86;98964.81;2624138;39;20462;-69
2022/01/31 01:53:25;;;;;;;13.07;4.45;;;;;;;2.99;70.00;98952.19;2623612;54;20031;-68
2022/01/31 01:55:55;;;;;;;15.38;5.00;;;;;;;2.98;69.45;98950.56;2624083;47;20086;-69
2022/01/31 01:58:38;;;;;;;15.20;4.82;;;;;;;3.02;69.82;98919.72;2624561;54;20034;-69
2022/01/31 02:01:08;;;;;;;19.17;4.80;;;;;;;3.05;69.74;98917.66;2624351;54;20130;-69
2022/01/31 02:03:51;;;;;;;14.27;4.28;;;;;;;3.06;69.71;98934.16;2626873;39;20454;-69
2022/01/31 02:06:26;;;;;;;15.07;4.78;;;;;;;3.04;69.96;98915.19;2623811;54;20034;-69
2022/01/31 02:08:58;;;;;;;14.05;4.20;;;;;;;3.05;69.72;98916.84;2624370;39;20461;-69
2022/01/31 02:11:32;;;;;;;9.70;4.38;;;;;;;3.02;69.93;98909.28;2624109;47;20569;-69
2022/01/31 02:14:03;;;;;;;13.93;5.10;;;;;;;2.98;69.71;98885.25;2624661;54;20031;-68
2022/01/31 02:16:54;;;;;;;11.27;4.95;;;;;;;2.95;70.17;98875.09;2625277;54;20043;-69
2022/01/31 02:19:31;;;;;;;14.55;4.63;;;;;;;3.01;70.18;98871.06;2624891;54;20804;-69
2022/01/31 02:22:29;;;;;;;11.50;4.00;;;;;;;3.00;70.38;98859.00;2625414;47;20034;-68
2022/01/31 02:25:02;;;;;;;12.80;4.18;;;;;;;3.03;69.92;98851.69;2625656;54;20565;-69
2022/01/31 02:27:39;;;;;;;20.45;5.45;;;;;;;3.00;70.25;98825.84;2625458;54;20798;-69
2022/01/31 02:30:12;;;;;;;;;;;;;;;2.97;70.08;98815.69;2624811;54;20094;-69
2022/01/31 02:32:48;;;;;;;16.50;4.60;;;;;;;3.00;70.09;98804.97;2623293;54;20457;-69
2022/01/31 02:35:19;;;;;;;14.55;5.53;;;;;;;3.01;70.27;98801.38;2625494;54;20538;-69
2022/01/31 02:37:51;;;;;;;19.88;5.40;;;;;;;3.03;70.38;98775.16;2625441;39;20434;-68
2022/01/31 02:40:27;;;;;;;12.32;5.47;;;;;;;3.02;70.72;98766.50;2624450;54;20051;-73
2022/01/31 02:42:59;;;;;;;17.23;5.75;;;;;;;3.04;70.75;98740.22;2624269;54;20039;-68
2022/01/31 02:45:30;;;;;;;13.30;5.57;;;;;;;3.05;70.62;98740.06;2624581;54;20103;-70
2022/01/31 02:48:03;;;;;;;13.27;5.35;;;;;;;3.06;70.94;98767.84;2624713;54;20051;-70
2022/01/31 02:50:34;;;;;;;9.93;4.93;;;;;;;3.09;70.91;98779.75;2624674;54;20037;-70
2022/01/31 02:53:22;;;;;;;22.65;6.45;;;;;;;3.13;70.65;98788.97;2624952;49;20689;-69
2022/01/31 02:55:52;;;;;;;16.65;6.00;;;;;;;3.13;70.55;98812.47;2624698;47;20018;-70
2022/01/31 02:58:24;;;;;;;17.80;5.50;;;;;;;3.16;70.50;98806.97;2625322;54;20623;-70
2022/01/31 03:00:55;;;;;;;12.48;5.45;;;;;;;3.19;70.46;98796.22;2620581;47;20034;-69
2022/01/31 03:03:32;;;;;;;19.52;6.90;;;;;;;3.21;70.89;98789.06;2619953;47;20038;-69
2022/01/31 03:06:02;;;;;;;20.40;6.03;;;;;;;3.21;70.63;98789.06;2619783;54;20033;-70
2022/01/31 03:08:35;;;;;;;16.23;5.88;;;;;;;3.20;70.36;98790.03;2619862;54;20538;-70
2022/01/31 03:11:17;;;;;;;18.48;6.47;;;;;;;3.27;70.52;98780.66;2619632;47;20031;-70
2022/01/31 03:14:07;;;;;;;16.73;6.10;;;;;;;3.27;70.34;98778.03;2619941;39;20494;-70
2022/01/31 03:16:40;;;;;;;21.27;6.88;;;;;;;3.26;70.76;98759.88;2620089;39;20086;-70
2022/01/31 03:19:21;;;;;;;16.75;6.60;;;;;;;3.29;70.44;98760.41;2619439;54;20061;-70
2022/01/31 03:21:59;;;;;;;18.92;6.25;;;;;;;3.27;70.47;98758.94;2619330;54;20669;-70
2022/01/31 03:24:31;;;;;;;19.98;7.28;;;;;;;3.31;70.76;98744.59;2619335;54;20123;-69
2022/01/31 03:27:01;;;;;;;12.88;5.72;;;;;;;3.33;70.52;98740.03;2619529;47;20039;-70
2022/01/31 03:29:31;;;;;;;18.30;6.80;;;;;;;3.34;70.45;98739.06;2619560;54;20023;-70
2022/01/31 03:32:00;;;;;;;19.08;6.72;;;;;;;3.29;70.77;98743.91;2619457;54;20034;-70
2022/01/31 03:34:30;;;;;;;18.38;6.38;;;;;;;3.28;70.56;98735.25;2620267;54;20068;-71
2022/01/31 03:37:00;;;;;;;18.73;6.95;;;;;;;3.32;71.01;98726.16;2621394;54;20042;-70
2022/01/31 03:39:35;;;;;;;14.05;7.05;;;;;;;3.35;70.90;98720.63;2622580;46;20023;-70
2022/01/31 03:42:06;;;;;;;19.70;6.63;;;;;;;3.36;71.18;98714.44;2625995;47;20573;-70
2022/01/31 03:44:36;;;;;;;14.50;6.05;;;;;;;3.39;71.19;98703.69;2633904;31;20507;-70
2022/01/31 03:47:06;;;;;;;19.58;6.45;;;;;;;3.42;71.03;98699.94;2625244;54;20046;-73
2022/01/31 03:49:36;;;;;;;18.58;6.00;;;;;;;3.45;71.21;98695.25;2624892;51;20042;-70
2022/01/31 03:52:11;;;;;;;18.48;5.78;;;;;;;3.46;71.24;98675.16;2625417;47;20034;-70
2022/01/31 03:54:49;;;;;;;23.38;6.22;;;;;;;3.43;71.09;98655.38;2625837;54;20030;-70
2022/01/31 03:57:18;;;;;;;16.85;6.32;;;;;;;3.45;71.32;98661.25;2624708;47;20030;-70
2022/01/31 04:00:13;;;;;;;14.95;5.50;;;;;;;3.46;70.93;98642.00;2624937;46;20035;-71
2022/01/31 04:02:46;;;;;;;15.15;6.45;;;;;;;3.44;71.22;98624.84;2625027;54;20117;-70
2022/01/31 04:05:16;;;;;;;18.42;5.53;;;;;;;3.47;71.61;98619.31;2624572;54;20046;-70
2022/01/31 04:07:45;;;;;;;15.98;5.70;;;;;;;3.46;71.44;98618.47;2624351;54;20093;-71
2022/01/31 04:10:19;;;;;;;14.20;5.38;;;;;;;3.42;71.46;98608.47;2624798;54;20090;-70
2022/01/31 04:12:49;;;;;;;20.50;6.55;;;;;;;3.45;71.88;98590.69;2624522;46;20098;-70
2022/01/31 04:15:18;;;;;;;16.40;5.78;;;;;;;3.47;71.98;98580.13;2623568;54;20046;-70
2022/01/31 04:17:48;;;;;;;17.73;5.35;;;;;;;3.46;71.76;98565.38;2622677;54;20095;-70
2022/01/31 04:20:19;;;;;;;11.93;4.63;;;;;;;3.44;72.27;98570.78;2623170;54;20082;-71
2022/01/31 04:22:53;;;;;;;14.43;5.95;;;;;;;3.46;72.17;98565.38;2623112;54;20094;-71
2022/01/31 04:25:42;;;;;;;16.98;6.55;;;;;;;3.47;72.02;98560.03;2623479;54;20589;-70
2022/01/31 04:28:19;;;;;;;19.02;5.82;;;;;;;3.47;72.55;98556.59;2624237;46;20042;-70
2022/01/31 04:30:56;;;;;;;16.10;5.28;;;;;;;3.47;72.16;98548.75;2625170;54;20054;-70
2022/01/31 04:33:27;;;;;;;21.17;5.82;;;;;;;3.48;72.60;98532.09;2626364;54;20042;-70
2022/01/31 04:35:57;;;;;;;17.02;4.93;;;;;;;3.46;72.81;98524.38;2626426;54;20045;-70
2022/01/31 04:38:27;;;;;;;14.90;5.15;;;;;;;3.47;72.83;98505.16;2626434;54;20046;-70
2022/01/31 04:40:59;;;;;;;13.73;4.88;;;;;;;3.52;72.84;98512.50;2626671;54;20069;-70
2022/01/31 04:43:29;;;;;;;17.23;5.30;;;;;;;3.55;72.52;98493.06;2626211;54;20078;-71
2022/01/31 04:46:01;;;;;;;17.95;5.13;;;;;;;3.55;72.87;98488.69;2624166;54;20141;-70
2022/01/31 04:48:30;;;;;;;20.25;5.68;;;;;;;3.52;72.88;98496.03;2624572;54;20070;-70
2022/01/31 04:51:00;;;;;;;20.98;5.07;;;;;;;3.56;73.13;98490.31;2624835;46;20145;-73
2022/01/31 04:53:30;;;;;;;16.15;5.43;;;;;;;3.58;73.07;98490.97;2624396;54;20158;-70
2022/01/31 04:56:02;;;;;;;19.77;5.85;;;;;;;3.56;73.57;98468.59;2624063;54;20138;-70
2022/01/31 04:58:32;;;;;;;15.68;5.50;;;;;;;3.54;74.07;98462.69;2624303;54;20050;-70
2022/01/31 05:01:02;;;;;;;16.15;4.97;;;;;;;3.51;74.60;98456.00;2624789;54;20102;-70
2022/01/31 05:03:32;;;;;;;19.60;5.00;;;;;;;3.50;74.76;98462.19;2626057;39;20494;-71
2022/01/31 05:06:02;;;;;;;15.82;5.57;;;;;;;3.46;75.17;98453.00;2627087;39;20422;-70
2022/01/31 05:08:33;;;;;;;17.65;5.38;;;;;;;3.40;75.83;98440.59;2626041;54;20038;-71
2022/01/31 05:11:08;;;;;;;17.60;6.47;;;;;;;3.35;76.26;98440.25;2627282;39;20438;-71
2022/01/31 05:13:38;;;;;;;13.18;4.82;;;;;;;3.30;77.01;98422.38;2626545;47;20122;-70
2022/01/31 05:16:08;;;;;;;14.18;5.82;;;;;;;3.26;77.13;98415.84;2620164;54;20068;-73
2022/01/31 05:18:38;;;;;;;14.15;5.53;;;;;;;3.26;77.50;98421.06;2619885;39;20425;-71
2022/01/31 05:21:08;;;;;;;19.25;5.63;;;;;;;3.28;78.07;98415.69;2619258;54;20039;-71
2022/01/31 05:23:38;;;;;;;16.60;5.10;;;;;;;3.29;78.03;98417.34;2619758;39;20437;-71
2022/01/31 05:26:10;;;;;;;18.50;6.03;;;;;;;3.32;77.87;98404.78;2619369;54;20185;-71
2022/01/31 05:28:39;;;;;;;16.20;5.43;;;;;;;3.31;78.29;98400.53;2619565;54;20053;-71
2022/01/31 05:31:10;;;;;;;18.85;5.65;;;;;;;3.27;78.28;98414.88;2619325;54;20046;-70
2022/01/31 05:33:39;;;;;;;11.45;4.68;;;;;;;3.21;77.97;98411.09;2619376;54;20053;-72
2022/01/31 05:36:09;;;;;;;12.70;5.13;;;;;;;3.23;78.82;98405.72;2619011;54;20097;-73
2022/01/31 05:38:40;;;;;;;12.50;5.53;;;;;;;3.24;78.70;98417.81;2618723;54;20045;-73
2022/01/31 05:41:18;;;;;;;13.55;5.93;;;;;;;3.13;78.80;98420.66;2619582;39;20466;-71
2022/01/31 05:43:48;;;;;;;10.68;4.68;;;;;;;3.15;79.01;98416.13;2619514;46;20071;-72
2022/01/31 05:46:18;;;;;;;11.98;4.45;;;;;;;3.16;79.42;98423.78;2619218;54;20046;-71
2022/01/31 05:48:47;;;;;;;12.82;4.75;;;;;;;3.10;79.27;98415.75;2620094;54;20166;-72
2022/01/31 05:51:19;;;;;;;10.50;4.60;;;;;;;3.06;79.14;98422.25;2626921;54;20041;-72
2022/01/31 05:53:50;;;;;;;9.68;4.68;;;;;;;3.09;79.57;98417.53;2625157;54;20046;-73
2022/01/31 05:56:22;;;;;;;10.32;4.20;;;;;;;3.10;79.69;98416.59;2626339;54;20050;-72
2022/01/31 05:58:52;;;;;;;10.40;4.60;;;;;;;3.02;79.98;98410.47;2620158;54;20046;-71
2022/01/31 06:01:22;;;;;;;11.57;4.00;;;;;;;3.04;80.16;98413.78;2619884;47;20047;-70
2022/01/31 06:03:52;;;;;;;7.72;3.92;;;;;;;3.04;79.87;98424.22;2619155;54;20034;-71
2022/01/31 06:06:21;;;;;;;6.90;3.35;;;;;;;3.05;80.20;98431.88;2618685;47;20038;-72
2022/01/31 06:08:51;;;;;;;9.50;4.03;;;;;;;3.02;80.13;98420.91;2618840;54;20051;-72
2022/01/31 06:11:25;;;;;;;5.50;3.15;;;;;;;3.02;80.25;98416.53;2618772;54;20038;-72
2022/01/31 06:13:55;;;;;;;7.13;3.22;;;;;;;3.03;80.29;98415.56;2618674;54;20090;-72
2022/01/31 06:16:25;;;;;;;7.47;3.75;;;;;;;3.05;80.37;98423.22;2618165;54;20042;-72
2022/01/31 06:18:54;;;;;;;6.13;3.70;;;;;;;2.99;80.27;98424.69;2617954;54;20045;-72
2022/01/31 06:21:24;;;;;;;7.70;3.63;;;;;;;3.00;80.51;98428.91;2617565;47;20081;-72
2022/01/31 06:23:54;;;;;;;5.75;3.38;;;;;;;2.99;80.67;98424.69;2618757;39;20403;-71
2022/01/31 06:26:29;;;;;;;6.90;3.25;;;;;;;3.02;80.80;98416.53;2618232;54;20057;-73
2022/01/31 06:29:10;;;;;;;5.47;3.03;;;;;;;2.99;80.69;98419.47;2617536;54;20026;-72
2022/01/31 06:31:45;;;;;;;5.05;3.45;;;;;;;2.97;80.67;98422.19;2617623;54;20104;-70
2022/01/31 06:34:18;;;;;;;5.05;2.90;;;;;;;2.97;80.72;98413.56;2618035;54;20086;-70
2022/01/31 06:36:48;;;;;;;7.05;3.20;;;;;;;2.98;81.00;98407.38;2618277;54;20034;-70
2022/01/31 06:39:18;;;;;;;4.55;3.22;;;;;;;3.01;81.07;98419.28;2618363;54;20527;-70
2022/01/31 06:41:50;;;;;;;6.30;3.17;;;;;;;3.04;81.15;98416.38;2619236;54;20550;-70
2022/01/31 06:44:19;;;;;;;3.72;2.80;;;;;;;3.11;81.11;98423.44;2625351;54;20038;-71
2022/01/31 06:46:49;;;;;;;7.75;3.10;;;;;;;3.11;81.07;98414.81;2623127;54;20046;-70
2022/01/31 06:49:19;;;;;;;5.38;2.80;;;;;;;3.12;81.42;98416.44;2622463;54;20613;-72
2022/01/31 06:51:49;;;;;;;6.10;2.88;;;;;;;3.12;81.65;98411.22;2623985;54;20030;-72
2022/01/31 06:54:18;;;;;;;5.60;3.20;;;;;;;3.19;82.34;98401.78;2623925;54;20128;-71
2022/01/31 06:56:51;;;;;;;6.70;3.10;;;;;;;3.24;81.86;98399.50;2622587;54;20041;-69
2022/01/31 06:59:20;;;;;;;3.75;2.75;;;;;;;3.28;81.79;98394.81;2623892;54;20026;-71
2022/01/31 07:01:50;;;;;;;4.53;2.78;;;;;;;3.26;82.40;98389.72;2624542;54;20086;-70
2022/01/31 07:04:20;;;;;;;6.85;3.15;;;;;;;3.27;82.25;98390.56;2624817;54;20054;-72
2022/01/31 07:06:52;;;;;;;7.13;3.10;;;;;;;3.27;82.28;98394.00;2625436;54;20118;-70
2022/01/31 07:09:22;;;;;;;5.03;2.97;;;;;;;3.29;82.52;98397.25;2624863;47;20027;-72
2022/01/31 07:11:57;;;;;;;7.07;3.33;;;;;;;3.40;82.50;98390.94;2624344;54;20043;-72
2022/01/31 07:14:33;;;;;;;6.78;2.55;;;;;;;3.40;82.18;98410.03;2619182;54;20058;-74
2022/01/31 07:17:04;;;;;;;6.75;3.00;;;;;;;3.45;82.16;98399.94;2618631;47;20022;-72
2022/01/31 07:19:37;;;;;;;6.72;3.08;;;;;;;3.49;82.02;98408.28;2619016;54;20041;-71
2022/01/31 07:22:10;;;;;;;3.78;2.95;;;;;;;3.57;81.93;98405.69;2618573;54;20035;-72
2022/01/31 07:24:52;;;;;;;6.80;3.55;;;;;;;3.61;81.84;98403.59;2618876;54;20034;-71
2022/01/31 07:27:24;;;;;;;7.53;4.00;;;;;;;3.61;81.82;98409.63;2619169;54;20035;-72
2022/01/31 07:29:53;;;;;;;5.82;2.92;;;;;;;3.63;81.92;98415.53;2619140;54;20030;-72
2022/01/31 07:32:23;;;;;;;5.68;3.20;;;;;;;3.66;82.03;98409.16;2628885;54;20031;-71
2022/01/31 07:34:55;;;;;;;6.90;3.50;;;;;;;3.73;81.94;98415.41;2628673;54;20038;-71
2022/01/31 07:37:25;;;;;;;7.30;4.20;;;;;;;3.79;82.13;98409.53;2620776;54;20557;-71
2022/01/31 07:39:55;;;;;;;5.15;3.10;;;;;;;3.84;81.38;98409.06;2619179;54;20039;-71
2022/01/31 07:42:27;;;;;;;8.50;4.20;;;;;;;3.86;81.41;98407.09;2620215;54;20038;-72
2022/01/31 07:45:02;;;;;;;7.03;4.00;;;;;;;3.91;81.41;98407.44;2618999;54;20037;-72
2022/01/31 07:47:40;;;;;;;7.82;3.38;;;;;;;3.92;81.14;98391.59;2618869;54;20034;-73
2022/01/31 07:50:13;;;;;;;7.88;3.35;;;;;;;3.94;81.34;98384.41;2618360;47;20537;-76
2022/01/31 07:52:43;;;;;;;7.40;3.38;;;;;;;4.02;80.76;98399.28;2618495;47;20045;-72
2022/01/31 07:55:13;;;;;;;4.30;3.00;;;;;;;4.07;80.69;98396.19;2619625;54;20034;-72
2022/01/31 07:57:47;;;;;;;7.30;3.33;;;;;;;4.16;80.58;98393.44;2619220;54;20581;-72
2022/01/31 08:00:19;;;;;;;4.28;3.03;;;;;;;4.17;80.37;98397.69;2618383;47;20178;-71
2022/01/31 08:02:52;;;;;;;8.00;3.50;;;;;;;4.12;79.96;98396.53;2619088;54;20073;-72
2022/01/31 08:05:22;;;;;;;5.38;3.20;;;;;;;4.16;79.87;98396.06;2619269;54;20298;-73
2022/01/31 08:07:52;;;;;;;6.32;3.58;;;;;;;4.25;80.33;98398.69;2618843;54;20070;-73
2022/01/31 08:10:22;;;;;;;6.90;3.42;;;;;;;4.30;79.98;98405.06;2619931;46;20523;-72
2022/01/31 08:12:55;;;;;;;4.57;3.03;;;;;;;4.36;79.37;98409.63;2619857;54;20561;-71
2022/01/31 08:15:33;;;;;;;6.68;3.42;;;;;;;4.42;79.49;98398.53;2619378;54;20030;-73
2022/01/31 08:18:03;;;;;;;5.75;3.20;;;;;;;4.42;79.48;98390.69;2618864;54;20034;-72
2022/01/31 08:20:32;;;;;;;6.35;3.08;;;;;;;4.51;79.21;98388.06;2618538;54;20030;-72
2022/01/31 08:23:02;;;;;;;7.00;3.15;;;;;;;4.53;79.07;98373.84;2618843;54;20038;-72
2022/01/31 08:25:35;;;;;;;5.65;3.13;;;;;;;4.53;79.17;98388.69;2618822;54;20045;-72
2022/01/31 08:28:09;;;;;;;5.95;2.95;;;;;;;4.55;79.04;98384.13;2618927;54;20050;-72
2022/01/31 08:30:47;;;;;;;8.43;3.67;;;;;;;4.56;78.55;98375.28;2618950;54;20121;-72
2022/01/31 08:33:32;;;;;;;4.40;2.80;;;;;;;4.56;78.33;98388.38;2618320;54;20030;-71
2022/01/31 08:36:02;;;;;;;6.15;2.80;;;;;;;4.53;78.08;98378.22;2618732;54;20085;-72
2022/01/31 08:38:32;;;;;;;3.92;3.10;;;;;;;4.54;78.28;98395.59;2618918;54;20042;-72
2022/01/31 08:41:02;;;;;;;5.25;3.38;;;;;;;4.52;77.99;98379.22;2618967;54;20550;-73
2022/01/31 08:43:35;;;;;;;6.05;3.17;;;;;;;4.57;77.90;98374.28;2618544;51;20031;-72
2022/01/31 08:46:06;;;;;;;5.85;2.88;;;;;;;4.64;77.82;98376.09;2618013;47;20050;-71
2022/01/31 08:48:36;;;;;;;6.40;2.83;;;;;;;4.72;77.86;98375.28;2618368;47;20034;-72
2022/01/31 08:51:08;;;;;;;5.97;2.72;;;;;;;4.77;77.12;98385.25;2618686;47;20053;-72
2022/01/31 08:53:39;;;;;;;7.50;2.90;;;;;;;4.82;77.32;98375.13;2618888;54;20589;-72
2022/01/31 08:56:12;;;;;;;5.82;2.60;;;;;;;4.89;77.50;98370.81;2618059;47;20042;-72
2022/01/31 08:58:47;;;;;;;3.90;2.70;;;;;;;4.97;77.17;98369.00;2618949;54;20026;-72
2022/01/31 09:01:20;;;;;;;5.80;2.63;;;;;;;5.02;76.75;98365.06;2619031;54;20038;-71
2022/01/31 09:04:01;;;;;;;3.90;2.47;;;;;;;5.00;77.08;98367.03;2625009;46;20041;-71
2022/01/31 09:06:33;;;;;;;7.45;3.10;;;;;;;4.99;76.74;98362.81;2627871;54;20038;-73
2022/01/31 09:09:06;;;;;;;4.53;2.55;;;;;;;5.01;76.85;98366.06;2627938;47;20041;-72
2022/01/31 09:11:37;;;;;;;5.60;2.60;;;;;;;4.96;76.57;98354.28;2625211;54;20027;-71
2022/01/31 09:14:09;;;;;;;3.95;2.47;;;;;;;4.93;76.47;98338.06;2623310;54;20023;-72
2022/01/31 09:16:38;;;;;;;6.10;3.40;;;;;;;5.00;76.35;98346.91;2622757;54;20034;-72
2022/01/31 09:19:08;;;;;;;6.40;2.95;;;;;;;4.94;75.69;98345.78;2624714;54;20034;-72
2022/01/31 09:21:39;;;;;;;4.82;3.22;;;;;;;4.91;76.18;98348.72;2624718;54;20033;-72
2022/01/31 09:24:09;;;;;;;5.32;3.00;;;;;;;5.01;76.62;98338.06;2624737;54;20038;-73
2022/01/31 09:26:38;;;;;;;6.63;2.60;;;;;;;5.08;75.86;98348.69;2619315;54;20577;-73
2022/01/31 09:29:12;;;;;;;5.07;2.60;;;;;;;5.02;75.94;98349.34;2619116;54;20158;-73
2022/01/31 09:31:42;;;;;;;8.00;2.60;;;;;;;4.94;75.81;98348.41;2618615;54;20031;-72
2022/01/31 09:34:11;;;;;;;6.40;2.97;;;;;;;4.96;76.21;98341.19;2618186;39;20446;-74
2022/01/31 09:36:42;;;;;;;6.55;2.92;;;;;;;4.99;76.23;98345.28;2618133;47;20555;-72
2022/01/31 09:39:11;;;;;;;7.32;3.38;;;;;;;4.99;75.98;98341.84;2618459;54;20653;-72
2022/01/31 09:41:45;;;;;;;8.48;3.88;;;;;;;4.97;75.97;98350.66;2617940;47;20026;-72
2022/01/31 09:44:24;;;;;;;5.07;3.03;;;;;;;4.97;75.97;98345.41;2618516;54;20565;-72
2022/01/31 09:47:18;;;;;;;8.10;3.13;;;;;;;5.01;75.76;98351.16;2617933;47;20034;-71
2022/01/31 09:49:48;;;;;;;5.72;3.33;;;;;;;4.99;75.73;98354.94;2618623;54;20034;-73
2022/01/31 09:52:18;;;;;;;10.88;4.45;;;;;;;4.97;75.75;98363.75;2618912;54;20542;-72
2022/01/31 09:54:49;;;;;;;9.77;4.60;;;;;;;5.00;75.74;98361.81;2618679;54;20564;-72
2022/01/31 09:57:20;;;;;;;10.73;4.85;;;;;;;5.09;76.37;98363.41;2618765;54;20042;-72
2022/01/31 09:59:52;;;;;;;6.63;3.03;;;;;;;5.20;75.64;98358.63;2619037;54;20560;-73
2022/01/31 10:02:22;;;;;;;6.10;3.13;;;;;;;5.23;75.40;98357.47;2618927;54;20045;-73
2022/01/31 10:04:52;;;;;;;7.53;3.30;;;;;;;5.33;75.17;98365.94;2619124;54;20562;-72
2022/01/31 10:07:21;;;;;;;4.40;2.80;;;;;;;5.29;75.29;98355.97;2619219;54;20570;-73
2022/01/31 10:09:52;;;;;;;8.77;3.03;;;;;;;5.33;75.16;98357.28;2619255;54;20061;-72
2022/01/31 10:16:24;;;;;;;7.03;3.03;;;;;;;5.38;75.24;98358.38;2619515;54;20546;-73
2022/01/31 10:18:04;;;;;;;8.32;3.20;;;;;;;5.46;74.33;98360.16;2618384;54;20033;-72
2022/01/31 10:20:36;;;;;;;6.45;2.22;;;;;;;5.50;73.96;98363.25;2619479;54;20034;-71
2022/01/31 10:23:09;;;;;;;5.85;2.55;;;;;;;5.45;73.42;98356.72;2619721;54;20038;-72
2022/01/31 10:25:39;;;;;;;9.93;3.13;;;;;;;5.50;73.58;98352.78;2619631;54;20550;-73
2022/01/31 10:28:15;;;;;;;8.02;2.95;;;;;;;5.54;72.93;98344.38;2618878;47;20035;-72
2022/01/31 10:30:52;;;;;;;5.78;2.28;;;;;;;5.56;72.70;98349.47;2619330;54;20037;-72
2022/01/31 10:33:25;;;;;;;11.30;2.67;;;;;;;5.54;72.22;98338.34;2618572;47;20022;-72
2022/01/31 10:35:55;;;;;;;6.30;2.20;;;;;;;5.51;72.37;98344.75;2618499;47;20542;-71
2022/01/31 10:38:33;;;;;;;6.47;2.45;;;;;;;5.56;72.16;98352.09;2619827;39;20411;-72
2022/01/31 10:44:16;;;;;;;5.55;1.90;;;;;;;5.50;71.21;98352.78;2620241;31;20455;-72
2022/01/31 10:52:23;;;;;;;9.25;2.50;;;;;;;5.62;70.99;98346.16;2620773;54;20034;-73
2022/01/31 10:54:55;;;;;;;7.22;2.20;;;;;;;5.63;70.56;98347.78;2627132;47;20027;-71
2022/01/31 10:57:25;;;;;;;11.77;2.50;;;;;;;5.70;71.01;98360.03;2627890;54;20031;-73
2022/01/31 11:00:01;;;;;;;5.43;2.20;;;;;;;5.70;70.04;98349.56;2626654;54;20038;-72
2022/01/31 11:02:34;;;;;;;5.97;1.90;;;;;;;5.65;69.34;98341.38;2619472;54;20039;-73
2022/01/31 11:05:04;;;;;;;3.10;1.45;;;;;;;5.65;69.05;98346.63;2619009;54;20534;-74
2022/01/31 11:07:33;;;;;;;8.77;2.38;;;;;;;5.66;68.77;98344.81;2619580;39;20422;-73
2022/01/31 11:10:03;;;;;;;5.28;2.00;;;;;;;5.63;68.79;98346.00;2618327;54;20569;-73
2022/01/31 11:12:33;;;;;;;4.70;1.60;;;;;;;5.64;68.78;98362.56;2618240;54;20039;-73
2022/01/31 11:15:05;;;;;;;7.13;1.92;;;;;;;5.68;68.61;98371.72;2616903;54;20282;-65
2022/01/31 11:17:38;;;;;;;4.15;1.70;;;;;;;5.65;68.62;98365.00;2618347;54;20163;-64
2022/01/31 11:20:09;;;;;;;4.70;2.17;;;;;;;5.67;68.07;98370.91;2619614;54;20081;-65
2022/01/31 11:22:47;;;;;;;8.07;1.80;;;;;;;5.78;68.66;98366.25;2619232;54;20034;-64
2022/01/31 11:25:21;;;;;;;6.07;2.30;;;;;;;5.89;68.41;98360.59;2619112;54;20046;-64
2022/01/31 11:27:54;;;;;;;10.02;1.80;;;;;;;5.89;67.65;98374.53;2618646;54;20027;-64
2022/01/31 11:30:25;;;;;;;9.45;2.20;;;;;;;5.81;67.91;98364.09;2619848;54;20051;-64
2022/01/31 11:32:57;;;;;;;6.78;2.60;;;;;;;5.76;68.20;98379.53;2620961;54;20027;-67
2022/01/31 11:35:27;;;;;;;5.20;2.53;;;;;;;5.72;68.08;98373.00;2619577;54;20051;-65
2022/01/31 11:37:57;;;;;;;6.95;2.03;;;;;;;5.65;68.05;98372.88;2621118;54;20034;-65
2022/01/31 11:40:27;;;;;;;7.00;2.00;;;;;;;5.61;68.42;98374.19;2620633;54;20568;-66
2022/01/31 11:42:58;;;;;;;6.28;1.92;;;;;;;5.63;68.69;98372.22;2618483;54;20061;-64
2022/01/31 11:45:31;;;;;;;6.78;2.30;;;;;;;5.71;68.72;98371.34;2618795;54;20026;-65
2022/01/31 11:48:07;;;;;;;8.85;1.85;;;;;;;5.68;68.43;98359.41;2618431;54;20554;-65
2022/01/31 11:50:45;;;;;;;6.00;1.67;;;;;;;5.66;68.77;98361.38;2619133;54;20039;-64
2022/01/31 11:53:15;;;;;;;4.28;1.77;;;;;;;5.66;68.68;98366.63;2619821;54;20046;-64
2022/01/31 11:55:44;;;;;;;5.38;1.80;;;;;;;5.66;68.75;98371.88;2618683;54;20081;-64
2022/01/31 11:58:17;;;;;;;2.03;1.50;;;;;;;5.65;68.81;98359.75;2618639;54;20042;-65
2022/01/31 12:00:49;;;;;;;7.45;1.70;;;;;;;5.74;68.42;98363.13;2619321;54;20034;-65
2022/01/31 12:03:21;;;;;;;5.07;1.88;;;;;;;5.80;68.42;98375.59;2620282;54;20038;-64
2022/01/31 12:05:52;;;;;;;5.60;1.70;;;;;;;5.88;68.59;98374.72;2619805;54;20038;-66
2022/01/31 12:08:25;;;;;;;4.38;1.70;;;;;;;5.83;68.32;98369.97;2618942;54;20027;-65
2022/01/31 12:11:09;;;;;;;5.15;1.65;;;;;;;5.93;68.35;98372.41;2619060;54;20045;-65
2022/01/31 12:13:42;;;;;;;5.97;1.57;;;;;;;5.92;67.99;98368.97;2619048;54;20065;-66
2022/01/31 12:16:41;;;;;;;7.82;1.90;;;;;;;5.96;67.44;98369.47;2618485;54;20151;-66